Time;durP1;ratioP1;P1;durP2;ratioP2;P2;SDS_P1;SDS_P2;PMS_P1;PMS_P2;Temp;Humidity;BMP_temperature;BMP_pressure;BME280_temperature;BME280_humidity;BME280_pressure;Samples;Min_cycle;Max_cycle;Signal;HPM_P1;HPM_P2
2022/10/28 00:02:11;;;;;;;14.38;5.38;;;17.60;99.90;;;;;;5070663;28;25066;-72
2022/10/28 00:04:37;;;;;;;14.43;5.88;;;17.70;99.90;;;;;;5057813;28;25051;-73
2022/10/28 00:07:03;;;;;;;17.35;7.15;;;17.70;99.90;;;;;;5064782;28;25081;-73
2022/10/28 00:09:28;;;;;;;11.90;5.47;;;17.70;99.90;;;;;;5064101;28;25093;-72
2022/10/28 00:11:54;;;;;;;19.05;7.03;;;17.70;99.90;;;;;;5061490;28;25079;-73
2022/10/28 00:14:20;;;;;;;16.15;6.05;;;17.70;99.90;;;;;;5071760;28;25087;-72
2022/10/28 00:16:45;;;;;;;11.93;5.80;;;17.70;99.90;;;;;;5070823;28;25139;-74
2022/10/28 00:19:12;;;;;;;16.30;5.82;;;17.70;99.90;;;;;;5064256;28;25084;-71
2022/10/28 00:21:40;;;;;;;12.02;6.15;;;17.70;99.90;;;;;;5064858;28;25042;-75
2022/10/28 00:24:08;;;;;;;13.18;6.10;;;17.70;99.90;;;;;;5047946;28;25132;-72
2022/10/28 00:26:38;;;;;;;12.48;6.65;;;17.60;99.90;;;;;;5068545;28;25097;-73
2022/10/28 00:29:08;;;;;;;16.88;5.90;;;17.70;99.90;;;;;;5072482;28;25075;-74
2022/10/28 00:31:35;;;;;;;14.55;6.40;;;17.80;99.90;;;;;;5068651;28;25063;-74
2022/10/28 00:34:03;;;;;;;18.85;7.15;;;17.70;99.90;;;;;;5063267;28;25136;-73
2022/10/28 00:36:34;;;;;;;13.65;5.90;;;17.70;99.90;;;;;;5047397;28;25059;-72
2022/10/28 00:39:01;;;;;;;15.63;5.90;;;17.60;99.90;;;;;;5071191;28;25068;-72
2022/10/28 00:41:32;;;;;;;13.75;6.10;;;17.60;99.90;;;;;;5063897;28;25066;-73
2022/10/28 00:44:19;;;;;;;16.30;6.30;;;17.60;99.90;;;;;;5066175;28;25061;-73
2022/10/28 00:46:48;;;;;;;13.85;6.32;;;17.50;99.90;;;;;;5053731;28;25072;-73
2022/10/28 00:49:13;;;;;;;17.63;6.32;;;17.40;99.90;;;;;;5063827;28;25149;-73
2022/10/28 00:51:40;;;;;;;13.70;5.82;;;17.50;99.90;;;;;;5043216;28;25095;-73
2022/10/28 00:54:06;;;;;;;14.80;5.93;;;17.40;99.90;;;;;;5061154;28;25078;-77
2022/10/28 00:56:38;;;;;;;13.63;6.22;;;17.30;99.90;;;;;;5062761;28;25140;-73
2022/10/28 00:59:08;;;;;;;15.98;6.00;;;17.30;99.90;;;;;;5071981;28;25097;-74
2022/10/28 01:01:34;;;;;;;13.82;6.13;;;17.30;99.90;;;;;;5068937;28;25128;-73
2022/10/28 01:04:00;;;;;;;11.38;6.18;;;17.40;99.90;;;;;;5047974;28;25073;-72
2022/10/28 01:06:27;;;;;;;13.30;5.40;;;17.30;99.90;;;;;;5058614;28;25057;-73
2022/10/28 01:08:53;;;;;;;15.68;6.63;;;17.30;99.90;;;;;;5064147;28;25127;-73
2022/10/28 01:11:49;;;;;;;15.68;5.50;;;17.20;99.90;;;;;;5051937;28;25066;-72
2022/10/28 01:14:20;;;;;;;16.00;5.97;;;17.10;99.90;;;;;;5058665;28;25138;-73
2022/10/28 01:16:58;;;;;;;13.38;6.45;;;17.10;99.90;;;;;;5061267;28;25086;-73
2022/10/28 01:19:51;;;;;;;16.95;6.20;;;17.10;99.90;;;;;;5068547;28;25072;-73
2022/10/28 01:22:32;;;;;;;14.30;7.47;;;17.10;99.90;;;;;;5063020;28;25104;-74
2022/10/28 01:25:22;;;;;;;10.43;5.80;;;17.10;99.90;;;;;;5057437;28;25062;-72
2022/10/28 01:28:06;;;;;;;13.63;6.28;;;17.10;99.90;;;;;;5060894;28;25112;-73
2022/10/28 01:31:10;;;;;;;16.05;5.22;;;17.10;99.90;;;;;;5058743;28;25119;-73
2022/10/28 01:34:18;;;;;;;14.18;5.85;;;17.00;99.90;;;;;;5058852;28;25069;-72
2022/10/28 01:36:55;;;;;;;13.32;5.68;;;17.10;99.90;;;;;;5065749;28;25080;-73
2022/10/28 01:39:29;;;;;;;15.32;6.07;;;17.10;99.90;;;;;;5051927;28;25091;-73
2022/10/28 01:41:57;;;;;;;14.90;5.55;;;17.10;99.90;;;;;;5050738;28;25049;-72
2022/10/28 01:44:40;;;;;;;13.98;5.30;;;17.10;99.90;;;;;;5044477;28;25091;-72
2022/10/28 01:47:08;;;;;;;15.35;5.20;;;17.10;99.90;;;;;;5059297;28;25081;-73
2022/10/28 01:49:56;;;;;;;11.25;5.95;;;17.10;99.90;;;;;;5045075;28;25101;-73
2022/10/28 01:52:26;;;;;;;9.43;4.93;;;17.00;99.90;;;;;;5050101;28;25099;-73
2022/10/28 01:55:02;;;;;;;14.73;6.53;;;17.10;99.90;;;;;;5062999;28;25064;-73
2022/10/28 01:57:30;;;;;;;14.32;5.60;;;17.30;99.90;;;;;;5067259;28;25117;-73
2022/10/28 01:59:56;;;;;;;11.98;5.38;;;17.30;99.90;;;;;;5039622;28;25154;-72
2022/10/28 02:02:22;;;;;;;16.67;6.53;;;17.30;99.90;;;;;;5075001;28;25096;-73
2022/10/28 02:04:48;;;;;;;16.25;5.88;;;17.40;99.90;;;;;;5064003;28;25109;-72
2022/10/28 02:07:15;;;;;;;10.38;5.38;;;17.30;99.90;;;;;;5065041;28;25005;-73
2022/10/28 02:10:02;;;;;;;12.45;5.30;;;17.30;99.90;;;;;;5063265;28;25104;-72
2022/10/28 02:12:34;;;;;;;11.43;5.45;;;17.10;99.90;;;;;;5059847;28;25121;-72
2022/10/28 02:15:06;;;;;;;11.38;5.97;;;17.00;99.90;;;;;;5068503;28;25126;-72
2022/10/28 02:18:23;;;;;;;10.88;4.43;;;17.00;99.90;;;;;;5064286;28;25086;-72
2022/10/28 02:21:01;;;;;;;14.13;5.53;;;17.00;99.90;;;;;;4985738;28;25164;-73
2022/10/28 02:23:47;;;;;;;14.80;5.82;;;17.10;99.90;;;;;;5070626;28;25118;-72
2022/10/28 02:26:20;;;;;;;17.08;5.72;;;16.90;99.90;;;;;;5065211;28;25101;-72
2022/10/28 02:28:59;;;;;;;12.95;5.55;;;17.00;99.90;;;;;;5060674;28;25116;-73
2022/10/28 02:31:39;;;;;;;14.30;5.53;;;16.90;99.90;;;;;;5078299;28;25087;-72
2022/10/28 02:34:10;;;;;;;12.90;5.75;;;17.00;99.90;;;;;;5062594;28;25064;-73
2022/10/28 02:36:40;;;;;;;13.35;5.13;;;17.00;99.90;;;;;;5065179;28;25154;-73
2022/10/28 02:39:06;;;;;;;14.38;6.28;;;17.00;99.90;;;;;;5051876;28;25161;-73
2022/10/28 02:41:42;;;;;;;9.35;5.63;;;17.00;99.90;;;;;;5069778;28;25045;-73
2022/10/28 02:44:13;;;;;;;18.15;5.72;;;17.10;99.90;;;;;;5069020;28;25129;-72
2022/10/28 02:46:44;;;;;;;13.52;5.78;;;17.20;99.90;;;;;;5066112;28;25062;-73
2022/10/28 02:49:12;;;;;;;12.43;5.82;;;17.20;99.90;;;;;;5079721;28;25047;-72
2022/10/28 02:51:44;;;;;;;13.68;5.07;;;17.20;99.90;;;;;;5067807;28;25066;-73
2022/10/28 02:54:12;;;;;;;14.95;5.60;;;17.30;99.90;;;;;;5091339;28;25078;-72
2022/10/28 02:56:55;;;;;;;18.65;5.82;;;17.40;99.90;;;;;;5077021;28;25126;-72
2022/10/28 02:59:23;;;;;;;11.63;5.72;;;17.50;99.90;;;;;;5064427;28;25154;-72
2022/10/28 03:01:49;;;;;;;19.85;6.68;;;17.50;99.90;;;;;;5067279;28;25087;-74
2022/10/28 03:04:14;;;;;;;15.00;6.32;;;17.50;99.90;;;;;;5057005;28;25166;-72
2022/10/28 03:06:40;;;;;;;14.85;6.57;;;17.40;99.90;;;;;;5054911;28;25074;-71
2022/10/28 03:09:05;;;;;;;15.48;6.45;;;17.40;99.90;;;;;;5040578;28;25247;-73
2022/10/28 03:11:31;;;;;;;16.25;6.50;;;17.30;99.90;;;;;;5045102;28;25070;-74
2022/10/28 03:13:57;;;;;;;15.25;5.82;;;17.30;99.90;;;;;;5066366;28;25049;-72
2022/10/28 03:16:22;;;;;;;14.95;7.25;;;17.30;99.90;;;;;;5061592;28;25071;-73
2022/10/28 03:18:48;;;;;;;13.13;7.55;;;17.40;99.90;;;;;;5069187;28;25099;-73
2022/10/28 03:21:13;;;;;;;12.13;5.80;;;17.30;99.90;;;;;;5047299;28;25152;-72
2022/10/28 03:23:39;;;;;;;13.35;5.32;;;17.30;99.90;;;;;;5062043;28;25091;-72
2022/10/28 03:26:05;;;;;;;18.58;6.20;;;17.40;99.90;;;;;;5058356;28;25125;-73
2022/10/28 03:28:30;;;;;;;13.82;5.75;;;17.30;99.90;;;;;;5067251;28;25060;-71
2022/10/28 03:30:56;;;;;;;14.23;6.07;;;17.30;99.90;;;;;;5074882;28;25075;-72
2022/10/28 03:33:21;;;;;;;15.70;6.40;;;17.30;99.90;;;;;;5062198;28;25106;-73
2022/10/28 03:35:47;;;;;;;13.70;6.00;;;17.20;99.90;;;;;;5066072;28;25105;-71
2022/10/28 03:38:12;;;;;;;13.05;5.18;;;17.20;99.90;;;;;;5071110;28;25049;-72
2022/10/28 03:40:38;;;;;;;8.52;5.07;;;17.20;99.90;;;;;;5079956;28;25146;-73
2022/10/28 03:43:04;;;;;;;17.45;5.55;;;17.20;99.90;;;;;;5077877;28;25114;-72
2022/10/28 03:45:29;;;;;;;12.40;5.88;;;17.30;99.90;;;;;;5079902;28;25111;-72
2022/10/28 03:47:55;;;;;;;8.77;5.13;;;17.20;99.90;;;;;;5071122;28;25087;-71
2022/10/28 03:50:20;;;;;;;12.50;5.75;;;17.20;99.90;;;;;;5064667;28;25080;-72
2022/10/28 03:52:46;;;;;;;12.38;5.05;;;17.20;99.90;;;;;;5070883;28;25132;-72
2022/10/28 03:55:12;;;;;;;8.80;4.65;;;17.30;99.90;;;;;;5075788;28;25075;-72
2022/10/28 03:57:37;;;;;;;12.88;5.45;;;17.30;99.90;;;;;;5060205;28;25059;-73
2022/10/28 04:00:04;;;;;;;15.05;6.15;;;17.20;99.90;;;;;;5068314;28;25143;-73
2022/10/28 04:02:30;;;;;;;12.00;5.63;;;17.20;99.90;;;;;;5065002;28;25079;-72
2022/10/28 04:04:55;;;;;;;12.23;5.30;;;17.10;99.90;;;;;;5070397;28;25102;-72
2022/10/28 04:07:22;;;;;;;18.05;5.97;;;17.10;99.90;;;;;;5059516;28;25132;-73
2022/10/28 04:09:50;;;;;;;14.85;5.85;;;17.10;99.90;;;;;;5050802;28;25128;-72
2022/10/28 04:12:16;;;;;;;15.35;5.40;;;17.10;99.90;;;;;;5058980;28;25065;-72
2022/10/28 04:14:41;;;;;;;15.13;5.35;;;17.10;99.90;;;;;;5062379;28;25104;-73
2022/10/28 04:17:07;;;;;;;14.13;5.38;;;17.10;99.90;;;;;;5062414;28;25169;-72
2022/10/28 04:19:33;;;;;;;15.45;6.35;;;17.00;99.90;;;;;;5047854;28;25154;-73
2022/10/28 04:21:58;;;;;;;15.13;5.70;;;16.90;99.90;;;;;;5061945;28;25089;-74
2022/10/28 04:24:24;;;;;;;13.95;6.05;;;17.10;99.90;;;;;;5045478;28;25057;-73
2022/10/28 04:26:49;;;;;;;16.40;4.80;;;17.10;99.90;;;;;;5056035;28;25119;-71
2022/10/28 04:29:15;;;;;;;17.20;6.03;;;17.00;99.90;;;;;;5063498;28;25120;-72
2022/10/28 04:31:41;;;;;;;10.45;4.80;;;17.10;99.90;;;;;;5064380;28;25059;-72
2022/10/28 04:34:06;;;;;;;11.70;5.22;;;17.20;99.90;;;;;;5068393;28;25097;-72
2022/10/28 04:36:32;;;;;;;12.60;6.05;;;17.00;99.90;;;;;;5066574;28;25070;-72
2022/10/28 04:38:57;;;;;;;13.00;5.68;;;17.10;99.90;;;;;;5048283;28;25070;-74
2022/10/28 04:41:23;;;;;;;15.40;5.85;;;17.10;99.90;;;;;;5069696;28;25090;-74
2022/10/28 04:43:49;;;;;;;13.07;4.93;;;17.10;99.90;;;;;;5066515;28;25092;-74
2022/10/28 04:46:14;;;;;;;13.43;5.15;;;17.10;99.90;;;;;;5044488;28;25132;-74
2022/10/28 04:48:40;;;;;;;13.82;5.40;;;17.10;99.90;;;;;;5059581;28;25111;-74
2022/10/28 04:51:05;;;;;;;9.60;5.13;;;17.10;99.90;;;;;;5056092;28;25061;-74
2022/10/28 04:53:31;;;;;;;10.75;5.10;;;17.10;99.90;;;;;;5064035;28;25077;-74
2022/10/28 04:55:57;;;;;;;17.23;4.82;;;17.10;99.90;;;;;;5045434;28;25133;-74
2022/10/28 04:58:23;;;;;;;12.25;5.30;;;17.10;99.90;;;;;;5064612;28;25062;-73
2022/10/28 05:00:49;;;;;;;12.95;5.15;;;17.10;99.90;;;;;;5064869;28;25107;-74
2022/10/28 05:03:14;;;;;;;11.13;4.40;;;17.20;99.90;;;;;;5062886;28;25118;-74
2022/10/28 05:05:40;;;;;;;11.80;4.82;;;17.20;99.90;;;;;;5070019;28;25084;-73
2022/10/28 05:08:06;;;;;;;14.68;4.80;;;17.20;99.90;;;;;;5070136;28;25071;-74
2022/10/28 05:10:31;;;;;;;17.13;4.93;;;17.20;99.90;;;;;;5075611;28;25072;-76
2022/10/28 05:12:57;;;;;;;17.10;4.90;;;17.20;99.90;;;;;;5058033;28;25069;-73
2022/10/28 05:15:25;;;;;;;15.32;4.40;;;17.10;99.90;;;;;;5078157;28;25081;-75
2022/10/28 05:17:51;;;;;;;13.30;5.05;;;17.20;99.90;;;;;;5076276;28;25125;-75
2022/10/28 05:20:18;;;;;;;10.32;4.00;;;17.10;99.90;;;;;;5069811;28;25064;-75
2022/10/28 05:22:51;;;;;;;13.27;5.03;;;17.00;99.90;;;;;;5053517;28;25079;-76
2022/10/28 05:25:17;;;;;;;10.65;4.70;;;17.00;99.90;;;;;;5052188;28;25146;-75
2022/10/28 05:27:42;;;;;;;12.15;5.18;;;16.90;99.90;;;;;;5063175;28;25123;-74
2022/10/28 05:30:09;;;;;;;15.48;4.70;;;17.00;99.90;;;;;;5063218;28;25153;-75
2022/10/28 05:32:35;;;;;;;16.80;5.00;;;16.90;99.90;;;;;;5071618;28;25073;-74
2022/10/28 05:35:00;;;;;;;21.60;5.57;;;16.90;99.90;;;;;;5068007;28;25047;-75
2022/10/28 05:37:26;;;;;;;13.23;4.70;;;17.00;99.90;;;;;;5048224;28;25073;-75
2022/10/28 05:39:52;;;;;;;13.70;4.47;;;17.10;99.90;;;;;;5066689;28;25127;-75
2022/10/28 05:42:17;;;;;;;10.73;5.10;;;16.90;99.90;;;;;;5066645;28;25059;-73
2022/10/28 05:44:43;;;;;;;17.10;5.25;;;16.90;99.90;;;;;;5070033;28;25077;-76
2022/10/28 05:47:08;;;;;;;14.90;5.60;;;17.00;99.90;;;;;;5062336;28;25079;-74
2022/10/28 05:49:34;;;;;;;10.05;4.68;;;16.90;99.90;;;;;;5073345;28;25080;-74
2022/10/28 05:52:00;;;;;;;11.40;4.70;;;17.00;99.90;;;;;;5074755;28;25094;-75
2022/10/28 05:54:25;;;;;;;14.55;4.80;;;17.00;99.90;;;;;;5061795;28;25074;-74
2022/10/28 05:56:52;;;;;;;11.18;4.53;;;17.00;99.90;;;;;;5062875;28;25080;-75
2022/10/28 05:59:18;;;;;;;10.80;4.95;;;17.00;99.90;;;;;;5068590;28;25110;-74
2022/10/28 06:01:43;;;;;;;10.65;4.03;;;17.00;99.90;;;;;;5066825;28;25080;-74
2022/10/28 06:04:09;;;;;;;8.20;4.13;;;17.00;99.90;;;;;;5070543;28;25149;-73
2022/10/28 06:06:34;;;;;;;11.77;4.40;;;17.10;99.90;;;;;;5070051;28;25096;-76
2022/10/28 06:09:00;;;;;;;9.00;4.63;;;17.00;99.90;;;;;;5064357;28;25117;-75
2022/10/28 06:11:26;;;;;;;11.18;4.72;;;17.10;99.90;;;;;;5070157;28;25086;-77
2022/10/28 06:13:51;;;;;;;15.57;4.57;;;17.10;99.90;;;;;;5072523;28;25101;-75
2022/10/28 06:16:17;;;;;;;19.83;4.15;;;17.10;99.90;;;;;;5071155;28;25073;-76
2022/10/28 06:18:42;;;;;;;13.93;4.60;;;17.00;99.90;;;;;;5071283;28;25060;-74
2022/10/28 06:21:09;;;;;;;18.95;5.22;;;17.00;99.90;;;;;;5072202;28;25060;-75
2022/10/28 06:23:35;;;;;;;9.88;4.63;;;17.00;99.90;;;;;;5067747;28;25086;-76
2022/10/28 06:26:02;;;;;;;14.20;5.50;;;16.90;99.90;;;;;;5045852;28;25056;-75
2022/10/28 06:28:28;;;;;;;11.75;4.70;;;16.90;99.90;;;;;;5070640;28;25132;-74
2022/10/28 06:30:59;;;;;;;14.80;4.93;;;16.80;99.90;;;;;;5067412;28;25247;-74
2022/10/28 06:33:26;;;;;;;12.13;4.95;;;16.80;99.90;;;;;;5039278;28;25087;-74
2022/10/28 06:35:56;;;;;;;19.50;5.28;;;16.80;99.90;;;;;;5072857;28;25094;-74
2022/10/28 06:38:23;;;;;;;10.98;4.60;;;16.90;99.90;;;;;;5065788;28;25145;-74
2022/10/28 06:40:48;;;;;;;17.17;4.85;;;16.90;99.90;;;;;;5048646;28;25113;-75
2022/10/28 06:43:15;;;;;;;12.70;4.50;;;16.90;99.90;;;;;;5072735;28;25092;-74
2022/10/28 06:45:41;;;;;;;12.68;5.25;;;16.90;99.90;;;;;;5068604;28;25051;-73
2022/10/28 06:48:06;;;;;;;12.88;4.47;;;16.90;99.90;;;;;;5071428;28;25061;-77
2022/10/28 06:50:33;;;;;;;15.95;4.63;;;16.80;99.90;;;;;;5049506;28;25076;-75
2022/10/28 06:52:59;;;;;;;13.75;4.80;;;16.80;99.90;;;;;;5075924;28;25096;-75
2022/10/28 06:55:26;;;;;;;11.93;4.25;;;16.80;99.90;;;;;;5075043;28;25125;-75
2022/10/28 06:57:51;;;;;;;10.88;4.40;;;16.90;99.90;;;;;;5077343;28;25089;-74
2022/10/28 07:00:17;;;;;;;14.55;4.72;;;17.00;99.90;;;;;;5047798;28;25068;-74
2022/10/28 07:02:43;;;;;;;11.43;4.47;;;17.10;99.90;;;;;;5055827;28;25059;-74
2022/10/28 07:05:09;;;;;;;17.70;5.07;;;16.90;99.90;;;;;;5059521;28;25059;-74
2022/10/28 07:07:38;;;;;;;12.63;5.22;;;16.90;99.90;;;;;;5055762;28;25120;-74
2022/10/28 07:10:06;;;;;;;15.93;5.50;;;17.00;99.90;;;;;;5060125;28;25058;-75
2022/10/28 07:12:32;;;;;;;11.43;4.50;;;16.90;99.90;;;;;;5065440;28;25083;-75
2022/10/28 07:14:58;;;;;;;17.75;5.57;;;17.00;99.90;;;;;;5058743;28;25182;-75
2022/10/28 07:17:23;;;;;;;12.90;4.32;;;17.00;99.90;;;;;;5058182;28;25064;-74
2022/10/28 07:19:49;;;;;;;12.15;4.47;;;17.00;99.90;;;;;;5060791;28;25072;-75
2022/10/28 07:22:15;;;;;;;12.57;5.47;;;17.10;99.90;;;;;;5061353;28;25049;-75
2022/10/28 07:24:40;;;;;;;11.05;4.78;;;17.00;99.90;;;;;;5061096;28;25071;-75
2022/10/28 07:27:07;;;;;;;22.67;5.85;;;17.10;99.90;;;;;;5058516;28;25110;-74
2022/10/28 07:29:33;;;;;;;13.57;4.55;;;17.10;99.90;;;;;;5046502;28;25106;-76
2022/10/28 07:31:58;;;;;;;13.82;4.97;;;17.10;99.90;;;;;;5064945;28;25126;-74
2022/10/28 07:34:24;;;;;;;16.50;5.22;;;17.10;99.90;;;;;;5054987;28;25133;-75
2022/10/28 07:36:51;;;;;;;19.10;4.35;;;17.30;99.90;;;;;;5064505;28;25065;-75
2022/10/28 07:39:17;;;;;;;14.13;4.80;;;17.30;99.90;;;;;;5058793;28;25109;-74
2022/10/28 07:41:43;;;;;;;8.52;4.53;;;17.30;99.90;;;;;;5060456;28;25145;-74
2022/10/28 07:44:08;;;;;;;18.60;6.10;;;17.40;99.90;;;;;;5056999;28;25155;-74
2022/10/28 07:46:34;;;;;;;11.57;4.90;;;17.40;99.90;;;;;;5057948;28;25064;-74
2022/10/28 07:49:00;;;;;;;13.07;5.00;;;17.40;99.90;;;;;;5038602;28;25048;-75
2022/10/28 07:51:26;;;;;;;12.68;5.05;;;17.60;99.90;;;;;;5066176;28;25065;-76
2022/10/28 07:53:52;;;;;;;17.52;5.45;;;17.50;99.90;;;;;;5067983;28;25098;-75
2022/10/28 07:56:17;;;;;;;11.32;5.05;;;17.40;99.90;;;;;;5065305;28;25057;-74
2022/10/28 07:58:43;;;;;;;13.35;4.90;;;17.50;99.90;;;;;;5060194;28;25066;-74
2022/10/28 08:01:11;;;;;;;12.43;5.57;;;17.60;99.90;;;;;;5064285;28;25061;-73
2022/10/28 08:03:36;;;;;;;23.85;5.57;;;17.60;99.90;;;;;;5066305;28;25095;-73
2022/10/28 08:06:12;;;;;;;19.30;5.07;;;17.60;99.90;;;;;;5071791;28;25180;-75
2022/10/28 08:08:38;;;;;;;15.80;4.63;;;17.70;99.90;;;;;;5063700;28;25068;-74
2022/10/28 08:11:12;;;;;;;11.75;4.70;;;17.80;99.90;;;;;;5059573;28;25068;-76
2022/10/28 08:13:38;;;;;;;16.45;4.90;;;17.70;99.90;;;;;;5056544;28;25066;-75
2022/10/28 08:16:03;;;;;;;18.98;5.88;;;17.60;99.90;;;;;;5058241;28;25054;-76
2022/10/28 08:18:30;;;;;;;16.55;6.18;;;17.60;99.90;;;;;;5058757;28;25060;-74
2022/10/28 08:20:59;;;;;;;10.50;4.65;;;17.70;99.90;;;;;;5063013;28;25061;-74
2022/10/28 08:23:24;;;;;;;13.57;5.47;;;17.70;99.90;;;;;;5059998;28;25079;-75
2022/10/28 08:25:51;;;;;;;14.65;5.80;;;17.80;99.90;;;;;;5068211;28;25131;-75
2022/10/28 08:28:17;;;;;;;10.02;4.70;;;17.80;99.90;;;;;;5067882;28;25058;-75
2022/10/28 08:30:44;;;;;;;12.43;5.00;;;17.90;99.90;;;;;;5056102;28;25147;-75
2022/10/28 08:33:09;;;;;;;16.08;5.47;;;18.00;99.90;;;;;;5068379;28;25073;-75
2022/10/28 08:35:35;;;;;;;13.43;4.55;;;18.00;99.90;;;;;;5070980;28;25056;-74
2022/10/28 08:38:02;;;;;;;16.10;4.30;;;17.90;99.90;;;;;;5062660;28;25081;-75
2022/10/28 08:40:46;;;;;;;15.55;5.20;;;18.00;99.90;;;;;;5060082;28;25084;-74
2022/10/28 08:43:35;;;;;;;20.70;5.90;;;18.10;99.90;;;;;;5066594;28;25064;-75
2022/10/28 08:46:10;;;;;;;11.90;5.18;;;18.10;99.90;;;;;;5070806;28;25100;-75
2022/10/28 08:48:36;;;;;;;20.42;5.55;;;18.10;99.90;;;;;;5067679;28;25081;-78
2022/10/28 08:51:05;;;;;;;13.48;5.35;;;18.20;99.90;;;;;;5069162;28;25080;-76
2022/10/28 08:53:46;;;;;;;14.65;4.22;;;18.10;99.90;;;;;;5071176;28;25149;-75
2022/10/28 08:56:24;;;;;;;13.32;5.28;;;18.10;99.90;;;;;;5056064;28;25086;-76
2022/10/28 08:58:53;;;;;;;19.33;6.80;;;18.20;99.90;;;;;;5059318;28;25094;-76
2022/10/28 09:01:30;;;;;;;13.43;5.53;;;18.20;99.90;;;;;;5055402;28;25125;-76
2022/10/28 09:04:01;;;;;;;11.57;4.13;;;18.20;99.90;;;;;;5053474;28;25109;-75
2022/10/28 09:06:29;;;;;;;18.73;5.03;;;18.30;99.90;;;;;;5057100;28;24886;-75
2022/10/28 09:08:56;;;;;;;12.80;4.95;;;18.30;99.90;;;;;;5058350;28;25061;-76
2022/10/28 09:11:54;;;;;;;19.25;5.13;;;18.30;99.90;;;;;;5059911;28;25143;-76
2022/10/28 09:14:32;;;;;;;9.48;5.32;;;18.40;99.90;;;;;;5035823;28;25074;-74
2022/10/28 09:17:21;;;;;;;13.25;4.60;;;18.40;99.90;;;;;;5059228;28;25060;-77
2022/10/28 09:20:06;;;;;;;10.10;4.32;;;18.50;99.90;;;;;;5065950;28;25076;-74
2022/10/28 09:22:50;;;;;;;16.13;4.93;;;18.50;99.90;;;;;;5061812;28;25078;-75
2022/10/28 09:25:24;;;;;;;16.13;5.05;;;18.60;99.90;;;;;;5051436;28;25068;-78
2022/10/28 09:28:27;;;;;;;13.25;4.93;;;18.60;99.90;;;;;;5064851;28;25141;-76
2022/10/28 09:31:06;;;;;;;15.63;4.88;;;18.80;99.90;;;;;;5063203;28;25141;-74
2022/10/28 09:34:00;;;;;;;15.27;5.28;;;18.90;99.90;;;;;;5061044;28;25119;-76
2022/10/28 09:36:46;;;;;;;9.88;3.90;;;19.00;99.90;;;;;;5058382;28;25088;-76
2022/10/28 09:39:43;;;;;;;13.43;4.78;;;19.00;99.90;;;;;;5043940;28;25068;-78
2022/10/28 09:42:16;;;;;;;12.70;4.32;;;19.00;99.90;;;;;;5077892;28;25076;-79
2022/10/28 09:44:48;;;;;;;11.57;4.70;;;19.10;99.90;;;;;;5080188;28;25081;-76
2022/10/28 09:47:24;;;;;;;15.77;4.97;;;19.10;99.90;;;;;;5085934;28;25067;-77
2022/10/28 09:49:52;;;;;;;8.80;4.53;;;19.10;99.90;;;;;;5063088;28;25069;-76
2022/10/28 09:52:23;;;;;;;13.63;4.72;;;19.40;99.90;;;;;;5055771;28;25111;-78
2022/10/28 09:54:54;;;;;;;17.02;5.25;;;19.50;99.90;;;;;;5064861;28;25182;-75
2022/10/28 09:57:22;;;;;;;15.68;4.95;;;19.60;99.90;;;;;;5058928;28;25080;-76
2022/10/28 09:59:48;;;;;;;10.15;4.15;;;19.60;99.90;;;;;;5063079;28;25049;-73
2022/10/28 10:02:36;;;;;;;14.88;4.60;;;19.60;99.90;;;;;;5056970;28;25092;-75
2022/10/28 10:05:02;;;;;;;11.20;4.50;;;19.60;99.90;;;;;;5059561;28;25143;-75
2022/10/28 10:07:43;;;;;;;17.05;4.57;;;19.70;99.90;;;;;;5060760;28;25067;-77
2022/10/28 10:10:16;;;;;;;11.93;4.75;;;19.80;99.90;;;;;;5060834;28;25103;-77
2022/10/28 10:12:42;;;;;;;14.48;4.40;;;19.90;99.90;;;;;;5030130;28;25055;-74
2022/10/28 10:15:17;;;;;;;14.77;4.82;;;20.00;99.90;;;;;;5063316;28;25072;-79
2022/10/28 10:17:45;;;;;;;10.00;4.45;;;20.10;99.90;;;;;;5068087;28;25133;-75
2022/10/28 10:20:14;;;;;;;12.50;3.88;;;20.10;99.90;;;;;;5060138;28;25046;-78
2022/10/28 10:22:42;;;;;;;12.15;4.07;;;20.10;99.90;;;;;;5044287;28;25060;-74
2022/10/28 10:25:19;;;;;;;18.23;4.38;;;20.20;99.90;;;;;;5065854;28;25069;-76
2022/10/28 10:28:13;;;;;;;14.75;4.50;;;20.20;99.90;;;;;;5062583;28;25062;-74
2022/10/28 10:30:45;;;;;;;15.30;4.57;;;20.40;99.90;;;;;;5063218;28;25103;-75
2022/10/28 10:33:27;;;;;;;19.55;4.00;;;20.40;99.90;;;;;;5072870;28;25088;-75
2022/10/28 10:36:01;;;;;;;14.63;3.75;;;20.30;99.90;;;;;;5071325;28;25085;-77
2022/10/28 10:38:28;;;;;;;16.33;4.68;;;20.20;99.90;;;;;;5066073;28;25149;-76
2022/10/28 10:40:54;;;;;;;15.48;4.30;;;20.20;99.90;;;;;;5070480;28;25092;-77
2022/10/28 10:43:33;;;;;;;14.70;4.10;;;20.10;99.90;;;;;;5079999;28;25064;-74
2022/10/28 10:46:05;;;;;;;15.55;4.40;;;20.10;99.90;;;;;;5063126;28;25157;-74
2022/10/28 10:48:35;;;;;;;11.50;4.30;;;20.20;99.90;;;;;;5071652;28;25082;-77
2022/10/28 10:51:20;;;;;;;16.25;4.38;;;20.20;99.90;;;;;;5068490;28;25137;-76
2022/10/28 10:53:53;;;;;;;19.08;4.63;;;20.30;99.90;;;;;;5070170;28;25127;-75
2022/10/28 10:56:28;;;;;;;16.13;6.32;;;20.40;99.90;;;;;;5069554;28;25099;-75
2022/10/28 10:58:59;;;;;;;17.02;4.22;;;20.40;99.90;;;;;;5061357;28;25156;-74
2022/10/28 11:01:31;;;;;;;16.25;4.72;;;20.50;99.90;;;;;;5057257;28;25096;-75
2022/10/28 11:04:14;;;;;;;9.02;3.72;;;20.50;99.90;;;;;;5067943;28;25115;-75
2022/10/28 11:06:42;;;;;;;14.82;4.13;;;20.50;99.90;;;;;;5046650;28;25151;-75
2022/10/28 11:09:31;;;;;;;7.53;3.83;;;20.40;99.90;;;;;;5062945;28;25093;-76
2022/10/28 11:11:56;;;;;;;18.20;4.10;;;20.50;99.90;;;;;;5055754;28;25156;-75
2022/10/28 11:14:31;;;;;;;18.67;4.32;;;20.70;99.90;;;;;;5060489;28;25130;-74
2022/10/28 11:17:01;;;;;;;13.85;4.20;;;20.70;99.90;;;;;;5059634;28;25114;-76
2022/10/28 11:19:29;;;;;;;12.38;4.53;;;20.70;99.90;;;;;;5045627;28;25097;-75
2022/10/28 11:22:28;;;;;;;20.80;4.85;;;20.80;99.90;;;;;;5069506;28;25066;-78
2022/10/28 11:25:14;;;;;;;19.17;4.85;;;20.80;99.90;;;;;;5067455;28;25158;-74
2022/10/28 11:27:53;;;;;;;17.10;4.45;;;20.80;99.90;;;;;;5074130;28;25151;-75
2022/10/28 11:30:26;;;;;;;15.73;4.00;;;20.90;99.90;;;;;;5071071;28;25096;-74
2022/10/28 11:32:54;;;;;;;17.15;5.43;;;20.80;99.90;;;;;;5062481;28;25061;-76
2022/10/28 11:35:26;;;;;;;16.90;4.72;;;20.90;99.90;;;;;;5064107;28;25103;-76
2022/10/28 11:38:09;;;;;;;9.55;4.50;;;20.90;99.90;;;;;;5076018;28;25098;-74
2022/10/28 11:41:00;;;;;;;12.65;4.18;;;20.80;99.90;;;;;;5049962;28;25086;-77
2022/10/28 11:43:33;;;;;;;16.20;4.18;;;20.70;99.90;;;;;;5070216;28;25076;-77
2022/10/28 11:46:23;;;;;;;12.15;4.60;;;20.80;99.90;;;;;;5072530;28;25096;-76
2022/10/28 11:49:31;;;;;;;12.07;3.58;;;20.60;99.90;;;;;;5067530;28;25058;-75
2022/10/28 11:52:05;;;;;;;18.30;5.93;;;20.60;99.90;;;;;;5067796;28;25084;-75
2022/10/28 11:54:59;;;;;;;17.52;3.97;;;20.70;99.90;;;;;;5057851;28;25064;-76
2022/10/28 11:57:45;;;;;;;15.70;3.17;;;20.70;99.90;;;;;;5065094;28;25074;-77
2022/10/28 12:00:28;;;;;;;12.27;3.47;;;20.70;99.90;;;;;;5059506;28;25126;-74
2022/10/28 12:03:02;;;;;;;10.80;3.70;;;20.60;99.90;;;;;;5066411;28;25077;-76
2022/10/28 12:05:42;;;;;;;19.10;3.42;;;20.70;99.90;;;;;;5066602;28;25071;-73
2022/10/28 12:08:26;;;;;;;15.05;3.42;;;20.70;99.90;;;;;;5065913;28;25122;-75
2022/10/28 12:11:26;;;;;;;16.63;3.95;;;20.70;99.90;;;;;;5067754;28;25119;-74
2022/10/28 12:14:07;;;;;;;15.65;4.40;;;20.70;99.90;;;;;;5063457;28;25093;-75
2022/10/28 12:16:42;;;;;;;12.02;4.57;;;20.70;99.90;;;;;;5067577;28;25088;-75
2022/10/28 12:19:29;;;;;;;13.15;3.85;;;20.70;99.90;;;;;;5073727;28;25108;-74
2022/10/28 12:22:24;;;;;;;9.35;3.40;;;20.70;99.90;;;;;;5059293;28;25082;-76
2022/10/28 12:24:51;;;;;;;12.98;4.32;;;20.70;99.90;;;;;;5044671;28;25072;-75
2022/10/28 12:27:27;;;;;;;12.50;4.50;;;20.80;99.90;;;;;;5068506;28;25059;-75
2022/10/28 12:30:02;;;;;;;9.88;3.67;;;20.80;99.90;;;;;;5074229;28;25140;-75
2022/10/28 12:32:31;;;;;;;11.38;3.42;;;20.80;99.90;;;;;;5072343;28;25060;-75
2022/10/28 12:35:19;;;;;;;15.65;3.67;;;20.90;99.90;;;;;;5047226;28;25104;-79
2022/10/28 12:37:54;;;;;;;14.77;4.07;;;20.90;99.90;;;;;;5071029;28;25050;-79
2022/10/28 12:40:25;;;;;;;13.00;3.30;;;20.80;99.90;;;;;;5070156;28;25133;-76
2022/10/28 12:43:16;;;;;;;12.10;3.95;;;20.80;99.90;;;;;;5075920;28;25075;-76
2022/10/28 12:45:43;;;;;;;8.90;3.33;;;20.70;99.90;;;;;;5053720;28;25177;-76
2022/10/28 12:48:25;;;;;;;12.48;3.80;;;20.70;99.90;;;;;;5066020;28;25129;-78
2022/10/28 12:50:56;;;;;;;18.85;4.15;;;20.80;99.90;;;;;;5047492;28;25079;-75
2022/10/28 12:53:27;;;;;;;13.25;4.13;;;20.90;99.90;;;;;;5049697;28;25080;-75
2022/10/28 12:55:59;;;;;;;10.48;3.95;;;20.80;99.90;;;;;;5075325;28;25052;-77
2022/10/28 12:58:40;;;;;;;23.55;4.10;;;20.90;99.90;;;;;;5072579;28;25097;-77
2022/10/28 13:01:13;;;;;;;16.45;4.75;;;20.90;99.90;;;;;;5075937;28;25069;-75